createdAt,value
2023-03-21T00:02:16.321Z,6.38
2023-03-21T00:05:13.372Z,6.20
2023-03-21T00:08:02.192Z,6.17
2023-03-21T00:10:47.439Z,6.34
2023-03-21T00:13:32.956Z,6.30
2023-03-21T00:16:20.717Z,6.42
2023-03-21T00:19:11.612Z,6.46
2023-03-21T00:22:07.042Z,6.43
2023-03-21T00:24:53.071Z,6.41
2023-03-21T00:28:05.307Z,6.34
2023-03-21T00:30:43.222Z,6.36
2023-03-21T00:33:27.866Z,6.14
2023-03-21T00:36:13.166Z,6.14
2023-03-21T00:38:57.840Z,6.14
2023-03-21T00:41:43.523Z,6.08
2023-03-21T00:44:28.353Z,6.13
2023-03-21T00:47:13.293Z,6.15
2023-03-21T00:49:58.005Z,6.20
2023-03-21T00:52:43.095Z,6.19
2023-03-21T00:55:27.916Z,6.18
2023-03-21T00:58:12.614Z,6.11
2023-03-21T01:00:57.381Z,6.09
2023-03-21T01:03:42.058Z,6.13
2023-03-21T01:06:26.920Z,6.08
2023-03-21T01:09:11.674Z,6.01
2023-03-21T01:11:56.767Z,5.95
2023-03-21T01:14:41.747Z,5.93
2023-03-21T01:17:26.523Z,5.97
2023-03-21T01:20:11.425Z,5.99
2023-03-21T01:22:56.496Z,5.92
2023-03-21T01:25:41.381Z,5.88
2023-03-21T01:28:26.268Z,5.87
2023-03-21T01:31:11.365Z,5.82
2023-03-21T01:33:56.281Z,5.83
2023-03-21T01:36:41.351Z,5.93
2023-03-21T01:39:26.405Z,5.84
2023-03-21T01:42:11.324Z,5.79
2023-03-21T01:44:56.354Z,5.72
2023-03-21T01:47:40.954Z,5.76
2023-03-21T01:50:25.826Z,5.70
2023-03-21T01:53:10.672Z,5.72
2023-03-21T01:55:55.697Z,5.66
2023-03-21T01:58:40.316Z,5.74
2023-03-21T02:01:25.192Z,5.64
2023-03-21T02:04:09.951Z,5.73
2023-03-21T02:06:54.556Z,5.72
2023-03-21T02:09:39.475Z,5.70
2023-03-21T02:12:24.336Z,5.82
2023-03-21T02:15:09.465Z,5.90
2023-03-21T02:17:54.309Z,5.99
2023-03-21T02:20:39.364Z,5.94
2023-03-21T02:23:24.435Z,5.89
2023-03-21T02:26:09.218Z,5.77
2023-03-21T02:28:54.093Z,5.84
2023-03-21T02:31:39.061Z,5.72
2023-03-21T02:34:23.895Z,5.73
2023-03-21T02:37:08.929Z,5.72
2023-03-21T02:39:53.952Z,5.65
2023-03-21T02:42:33.357Z,5.67
2023-03-21T02:45:17.897Z,5.67
2023-03-21T02:48:03.397Z,5.63
2023-03-21T02:50:48.246Z,5.62
2023-03-21T02:53:33.098Z,5.63
2023-03-21T02:56:17.849Z,5.68
2023-03-21T02:59:02.654Z,5.62
2023-03-21T03:01:47.741Z,5.71
2023-03-21T03:04:32.577Z,5.60
2023-03-21T03:07:17.275Z,5.53
2023-03-21T03:10:02.067Z,5.62
2023-03-21T03:12:46.959Z,5.55
2023-03-21T03:15:31.883Z,5.52
2023-03-21T03:18:16.727Z,5.57
2023-03-21T03:21:01.615Z,5.56
2023-03-21T03:23:46.376Z,5.56
2023-03-21T03:26:31.516Z,5.59
2023-03-21T03:29:16.352Z,5.61
2023-03-21T03:32:01.157Z,5.61
2023-03-21T03:34:46.008Z,5.57
2023-03-21T03:37:30.843Z,5.50
2023-03-21T03:40:15.716Z,5.39
2023-03-21T03:43:00.648Z,5.34
2023-03-21T03:45:45.599Z,5.32
2023-03-21T03:48:30.426Z,5.31
2023-03-21T03:51:15.219Z,5.40
2023-03-21T03:54:00.006Z,5.42
2023-03-21T03:56:44.918Z,5.41
2023-03-21T03:59:29.834Z,5.43
2023-03-21T04:02:14.866Z,5.39
2023-03-21T04:04:59.735Z,5.39
2023-03-21T04:07:44.632Z,5.38
2023-03-21T04:10:29.519Z,5.33
2023-03-21T04:13:14.225Z,5.29
2023-03-21T04:15:59.127Z,5.39
2023-03-21T04:18:43.961Z,5.29
2023-03-21T04:21:28.965Z,5.20
2023-03-21T04:24:13.869Z,5.23
2023-03-21T04:26:58.776Z,5.18
2023-03-21T04:29:43.590Z,5.39
2023-03-21T04:32:28.541Z,5.38
2023-03-21T04:35:13.579Z,5.31
2023-03-21T04:37:58.414Z,5.27
2023-03-21T04:40:43.307Z,5.28
2023-03-21T04:43:28.086Z,5.26
2023-03-21T04:46:13.030Z,5.27
2023-03-21T04:48:57.945Z,5.25
2023-03-21T04:51:42.936Z,5.21
2023-03-21T04:54:27.791Z,5.19
2023-03-21T04:57:12.695Z,5.18
2023-03-21T04:59:57.733Z,5.17
2023-03-21T05:02:42.542Z,5.25
2023-03-21T05:05:27.482Z,5.20
2023-03-21T05:08:12.354Z,5.12
2023-03-21T05:10:57.229Z,4.96
2023-03-21T05:13:42.126Z,5.05
2023-03-21T05:16:27.176Z,5.00
2023-03-21T05:19:12.074Z,5.00
2023-03-21T05:21:57.054Z,5.04
2023-03-21T05:24:42.203Z,5.04
2023-03-21T05:27:26.843Z,5.09
2023-03-21T05:30:12.319Z,5.09
2023-03-21T05:32:57.312Z,5.14
2023-03-21T05:35:42.390Z,5.07
2023-03-21T05:38:27.333Z,5.17
2023-03-21T05:41:12.224Z,5.12
2023-03-21T05:43:57.133Z,5.12
2023-03-21T05:46:42.198Z,5.13
2023-03-21T05:49:27.202Z,5.13
2023-03-21T05:52:12.200Z,5.08
2023-03-21T05:54:57.208Z,5.09
2023-03-21T05:57:42.088Z,5.03
2023-03-21T06:00:28.328Z,5.01
2023-03-21T06:03:14.586Z,5.08
2023-03-21T06:05:59.363Z,5.12
2023-03-21T06:08:44.387Z,5.07
2023-03-21T06:11:29.222Z,5.17
2023-03-21T06:14:14.297Z,5.20
2023-03-21T06:16:59.189Z,5.26
2023-03-21T06:19:44.199Z,5.36
2023-03-21T06:22:29.034Z,5.45
2023-03-21T06:25:13.986Z,5.41
2023-03-21T06:27:58.995Z,5.40
2023-03-21T06:30:43.959Z,5.49
2023-03-21T06:33:28.859Z,5.50
2023-03-21T06:36:13.872Z,5.60
2023-03-21T06:38:58.805Z,5.68
2023-03-21T06:41:43.700Z,5.78
2023-03-21T06:44:28.811Z,5.83
2023-03-21T06:47:13.796Z,5.90
2023-03-21T06:49:58.757Z,6.02
2023-03-21T06:52:43.638Z,6.01
2023-03-21T06:55:28.459Z,6.03
2023-03-21T06:58:13.529Z,5.94
2023-03-21T07:00:58.542Z,6.08
2023-03-21T07:03:43.404Z,6.11
2023-03-21T07:06:28.258Z,6.28
2023-03-21T07:09:13.427Z,6.32
2023-03-21T07:11:58.261Z,6.46
2023-03-21T07:14:43.048Z,6.50
2023-03-21T07:17:27.784Z,6.58
2023-03-21T07:20:12.601Z,6.63
2023-03-21T07:22:57.580Z,6.69
2023-03-21T07:25:42.454Z,6.52
2023-03-21T07:28:27.392Z,6.52
2023-03-21T07:31:12.483Z,6.63
2023-03-21T07:33:57.502Z,6.88
2023-03-21T07:36:44.592Z,6.84
2023-03-21T07:39:29.539Z,7.05
2023-03-21T07:42:14.457Z,7.15
2023-03-21T07:44:59.434Z,7.17
2023-03-21T07:47:44.491Z,7.28
2023-03-21T07:50:29.389Z,7.42
2023-03-21T07:53:14.240Z,7.48
2023-03-21T07:55:59.034Z,7.77
2023-03-21T07:58:44.158Z,7.83
2023-03-21T08:01:29.131Z,7.79
2023-03-21T08:04:13.950Z,7.82
2023-03-21T08:06:58.893Z,7.76
2023-03-21T08:09:43.693Z,7.69
2023-03-21T08:12:28.660Z,7.88
2023-03-21T08:15:13.503Z,8.09
2023-03-21T08:17:58.491Z,8.13
2023-03-21T08:20:43.508Z,8.17
2023-03-21T08:23:28.618Z,8.60
2023-03-21T08:26:13.537Z,8.38
2023-03-21T08:28:58.349Z,8.37
2023-03-21T08:31:43.360Z,8.36
2023-03-21T08:34:28.211Z,8.40
2023-03-21T08:37:13.136Z,8.24
2023-03-21T08:39:58.161Z,8.30
2023-03-21T08:42:42.968Z,8.34
2023-03-21T08:45:27.967Z,8.44
2023-03-21T08:48:12.969Z,8.71
2023-03-21T08:50:57.923Z,8.61
2023-03-21T08:53:42.931Z,9.02
2023-03-21T08:56:27.932Z,8.84
2023-03-21T08:59:12.817Z,9.02
2023-03-21T09:01:57.896Z,9.15
2023-03-21T09:04:42.923Z,8.89
2023-03-21T09:07:27.692Z,9.09
2023-03-21T09:10:21.034Z,8.98
2023-03-21T09:13:06.748Z,9.20
2023-03-21T09:15:51.628Z,9.42
2023-03-21T09:18:36.585Z,9.15
2023-03-21T09:21:21.551Z,9.18
2023-03-21T09:24:06.585Z,9.38
2023-03-21T09:26:54.646Z,9.35
2023-03-21T09:29:39.486Z,9.40
2023-03-21T09:32:24.617Z,9.47
2023-03-21T09:35:09.461Z,9.47
2023-03-21T09:37:55.808Z,9.78
2023-03-21T09:40:40.508Z,10.06
2023-03-21T09:43:25.411Z,9.86
2023-03-21T09:46:10.349Z,9.85
2023-03-21T09:48:57.429Z,9.91
2023-03-21T09:51:42.694Z,9.78
2023-03-21T09:54:27.834Z,9.77
2023-03-21T09:57:12.889Z,9.93
2023-03-21T09:59:58.076Z,10.10
2023-03-21T10:02:43.072Z,10.11
2023-03-21T10:05:28.024Z,10.16
2023-03-21T10:08:12.880Z,10.24
2023-03-21T10:10:57.836Z,10.36
2023-03-21T10:13:42.732Z,10.54
2023-03-21T10:16:27.662Z,10.29
2023-03-21T10:19:12.674Z,10.55
2023-03-21T10:22:01.366Z,10.55
2023-03-21T10:24:47.494Z,10.57
2023-03-21T10:27:32.470Z,10.68
2023-03-21T10:30:17.472Z,10.93
2023-03-21T10:33:02.498Z,10.88
2023-03-21T10:35:47.205Z,10.77
2023-03-21T10:38:32.134Z,11.10
2023-03-21T10:41:17.066Z,10.85
2023-03-21T10:44:02.076Z,10.89
2023-03-21T10:46:47.063Z,11.06
2023-03-21T10:49:40.292Z,11.10
2023-03-21T10:52:25.670Z,11.14
2023-03-21T10:55:10.649Z,11.24
2023-03-21T10:57:55.478Z,11.10
2023-03-21T11:00:40.565Z,11.30
2023-03-21T11:03:25.366Z,11.57
2023-03-21T11:06:10.310Z,11.63
2023-03-21T11:08:54.892Z,11.62
2023-03-21T11:11:39.985Z,11.68
2023-03-21T11:14:24.874Z,11.80
2023-03-21T11:17:09.810Z,11.52
2023-03-21T11:19:54.753Z,11.56
2023-03-21T11:22:39.548Z,11.69
2023-03-21T11:25:24.462Z,11.81
2023-03-21T11:28:09.269Z,11.68
2023-03-21T11:30:54.341Z,11.79
2023-03-21T11:33:39.010Z,11.97
2023-03-21T11:36:24.000Z,11.92
2023-03-21T11:39:08.838Z,11.90
2023-03-21T11:41:53.813Z,11.94
2023-03-21T11:44:38.811Z,12.08
2023-03-21T11:47:23.762Z,11.96
2023-03-21T11:50:08.769Z,12.16
2023-03-21T11:52:53.612Z,12.20
2023-03-21T11:55:38.830Z,12.10
2023-03-21T11:58:23.523Z,12.75
2023-03-21T12:01:08.469Z,12.74
2023-03-21T12:03:54.817Z,13.04
2023-03-21T12:06:39.780Z,12.81
2023-03-21T12:09:24.678Z,12.68
2023-03-21T12:12:09.513Z,12.74
2023-03-21T12:14:54.452Z,12.84
2023-03-21T12:17:39.290Z,13.08
2023-03-21T12:20:24.314Z,13.16
2023-03-21T12:23:09.231Z,13.46
2023-03-21T12:25:54.255Z,13.67
2023-03-21T12:28:39.178Z,13.66
2023-03-21T12:31:24.157Z,13.62
2023-03-21T12:34:09.124Z,13.86
2023-03-21T12:36:54.127Z,13.69
2023-03-21T12:39:39.299Z,13.83
2023-03-21T12:42:24.038Z,13.83
2023-03-21T12:45:15.353Z,13.81
2023-03-21T12:48:00.595Z,13.84
2023-03-21T12:50:45.393Z,13.82
2023-03-21T12:53:30.308Z,13.63
2023-03-21T12:56:15.296Z,13.86
2023-03-21T12:59:00.236Z,13.79
2023-03-21T13:01:45.070Z,14.09
2023-03-21T13:04:29.990Z,14.09
2023-03-21T13:07:14.864Z,14.04
2023-03-21T13:09:59.698Z,13.95
2023-03-21T13:12:44.564Z,14.07
2023-03-21T13:15:29.378Z,14.04
2023-03-21T13:18:14.266Z,14.23
2023-03-21T13:20:59.286Z,14.59
2023-03-21T13:23:44.033Z,14.40
2023-03-21T13:26:29.069Z,14.07
2023-03-21T13:29:13.947Z,14.38
2023-03-21T13:31:58.850Z,14.39
2023-03-21T13:34:43.732Z,14.39
2023-03-21T13:37:28.625Z,14.06
2023-03-21T13:40:13.322Z,13.99
2023-03-21T13:42:58.128Z,14.35
2023-03-21T13:45:43.280Z,14.39
2023-03-21T13:48:28.129Z,14.57
2023-03-21T13:51:13.126Z,14.77
2023-03-21T13:53:57.948Z,14.87
2023-03-21T13:56:43.095Z,14.48
2023-03-21T13:59:28.002Z,14.17
2023-03-21T14:02:13.105Z,14.23
2023-03-21T14:05:06.576Z,14.39
2023-03-21T14:07:52.885Z,14.59
2023-03-21T14:10:39.546Z,14.53
2023-03-21T14:13:24.641Z,13.99
2023-03-21T14:16:09.555Z,14.46
2023-03-21T14:18:55.931Z,14.31
2023-03-21T14:21:41.080Z,14.48
2023-03-21T14:24:25.936Z,14.14
2023-03-21T14:27:11.025Z,14.45
2023-03-21T14:29:55.789Z,14.34
2023-03-21T14:32:40.793Z,14.35
2023-03-21T14:35:25.855Z,14.25
2023-03-21T14:38:10.692Z,14.15
2023-03-21T14:40:55.616Z,14.27
2023-03-21T14:43:40.569Z,14.42
2023-03-21T14:46:25.603Z,14.27
2023-03-21T14:49:10.420Z,14.06
2023-03-21T14:51:55.492Z,14.18
2023-03-21T14:54:40.342Z,14.14
2023-03-21T14:57:25.388Z,14.17
2023-03-21T15:00:10.363Z,14.45
2023-03-21T15:02:55.350Z,14.40
2023-03-21T15:05:40.293Z,13.97
2023-03-21T15:08:24.939Z,14.17
2023-03-21T15:11:10.003Z,14.25
2023-03-21T15:13:54.886Z,14.34
2023-03-21T15:16:39.762Z,14.39
2023-03-21T15:19:24.482Z,14.38
2023-03-21T15:22:09.528Z,14.25
2023-03-21T15:24:54.434Z,14.09
2023-03-21T15:27:39.408Z,14.18
2023-03-21T15:30:24.532Z,14.28
2023-03-21T15:33:09.535Z,14.38
2023-03-21T15:35:54.410Z,14.32
2023-03-21T15:38:39.155Z,14.35
2023-03-21T15:41:24.176Z,14.37
2023-03-21T15:44:09.184Z,14.50
2023-03-21T15:46:54.197Z,14.42
2023-03-21T15:49:39.071Z,14.37
2023-03-21T15:52:23.891Z,14.30
2023-03-21T15:55:08.779Z,14.20
2023-03-21T15:57:53.632Z,14.05
2023-03-21T16:00:39.063Z,13.88
2023-03-21T16:03:24.085Z,13.76
2023-03-21T16:06:10.856Z,13.80
2023-03-21T16:08:56.094Z,13.85
2023-03-21T16:11:40.961Z,13.90
2023-03-21T16:14:26.015Z,13.93
2023-03-21T16:17:10.966Z,13.92
2023-03-21T16:19:55.788Z,13.89
2023-03-21T16:22:40.816Z,13.83
2023-03-21T16:25:25.798Z,13.84
2023-03-21T16:28:10.940Z,13.60
2023-03-21T16:30:55.866Z,13.28
2023-03-21T16:33:40.904Z,13.44
2023-03-21T16:36:25.863Z,13.35
2023-03-21T16:39:10.770Z,13.47
2023-03-21T16:41:55.614Z,13.55
2023-03-21T16:44:40.513Z,13.55
2023-03-21T16:47:25.335Z,13.52
2023-03-21T16:50:10.841Z,13.54
2023-03-21T16:52:55.460Z,13.54
2023-03-21T16:55:40.317Z,13.52
2023-03-21T16:58:25.174Z,13.51
2023-03-21T17:01:10.011Z,13.42
2023-03-21T17:03:55.071Z,13.23
2023-03-21T17:06:40.115Z,13.19
2023-03-21T17:09:24.962Z,13.20
2023-03-21T17:12:09.980Z,13.21
2023-03-21T17:14:54.969Z,13.19
2023-03-21T17:17:40.063Z,13.20
2023-03-21T17:20:24.990Z,13.18
2023-03-21T17:23:09.944Z,13.19
2023-03-21T17:25:54.731Z,13.29
2023-03-21T17:28:39.514Z,13.10
2023-03-21T17:31:24.386Z,12.91
2023-03-21T17:34:09.366Z,12.76
2023-03-21T17:36:54.293Z,12.81
2023-03-21T17:39:39.268Z,12.85
2023-03-21T17:42:24.242Z,12.71
2023-03-21T17:45:09.227Z,12.64
2023-03-21T17:47:54.279Z,12.63
2023-03-21T17:50:39.629Z,12.66
2023-03-21T17:53:24.854Z,12.59
2023-03-21T17:56:09.738Z,12.50
2023-03-21T17:58:54.778Z,12.37
2023-03-21T18:01:39.835Z,12.31
2023-03-21T18:04:24.865Z,12.26
2023-03-21T18:07:12.281Z,12.25
2023-03-21T18:10:14.691Z,12.15
2023-03-21T18:12:59.573Z,12.13
2023-03-21T18:15:45.066Z,12.10
2023-03-21T18:18:29.751Z,12.06
2023-03-21T18:21:14.761Z,11.99
2023-03-21T18:23:59.684Z,11.98
2023-03-21T18:26:44.363Z,11.87
2023-03-21T18:32:33.943Z,11.77
2023-03-21T18:35:19.048Z,11.59
2023-03-21T18:38:03.667Z,11.30
2023-03-21T18:40:48.575Z,11.35
2023-03-21T18:46:38.513Z,11.20
2023-03-21T18:52:28.525Z,11.28
2023-03-21T18:55:13.383Z,11.26
2023-03-21T18:57:58.381Z,11.25
2023-03-21T19:00:43.608Z,11.26
2023-03-21T19:03:36.761Z,11.28
2023-03-21T19:06:22.242Z,11.23
2023-03-21T19:09:08.003Z,11.00
2023-03-21T19:11:53.139Z,10.93
2023-03-21T19:14:38.172Z,10.90
2023-03-21T19:18:23.260Z,10.86
2023-03-21T19:20:28.193Z,10.84
2023-03-21T19:23:13.039Z,10.82
2023-03-21T19:25:57.822Z,10.75
2023-03-21T19:28:42.702Z,10.72
2023-03-21T19:31:27.729Z,10.77
2023-03-21T19:34:12.562Z,10.77
2023-03-21T19:36:57.482Z,10.69
2023-03-21T19:39:42.346Z,10.74
2023-03-21T19:42:29.316Z,10.74
2023-03-21T19:45:15.544Z,10.73
2023-03-21T19:48:00.567Z,10.69
2023-03-21T19:51:20.254Z,10.70
2023-03-21T19:53:50.295Z,10.59
2023-03-21T19:56:35.190Z,10.54
2023-03-21T19:59:19.931Z,10.47
2023-03-21T20:02:27.162Z,10.45
2023-03-21T20:05:09.450Z,10.40
2023-03-21T20:07:54.231Z,10.33
2023-03-21T20:10:39.816Z,10.15
2023-03-21T20:13:24.701Z,10.29
2023-03-21T20:16:10.805Z,10.25
2023-03-21T20:18:55.589Z,10.21
2023-03-21T20:21:48.632Z,10.21
2023-03-21T20:24:36.806Z,10.12
2023-03-21T20:27:21.639Z,10.03
2023-03-21T20:30:09.636Z,9.99
2023-03-21T20:32:54.886Z,10.02
2023-03-21T20:36:24.020Z,9.98
2023-03-21T20:38:44.207Z,9.97
2023-03-21T20:41:29.214Z,9.97
2023-03-21T20:44:44.739Z,9.89
2023-03-21T20:47:18.579Z,9.88
2023-03-21T20:50:03.339Z,9.94
2023-03-21T20:53:06.305Z,9.97
2023-03-21T20:55:51.602Z,10.00
2023-03-21T20:59:01.608Z,9.92
2023-03-21T21:01:41.242Z,9.81
2023-03-21T21:04:44.346Z,9.78
2023-03-21T21:07:30.617Z,9.74
2023-03-21T21:10:15.459Z,9.64
2023-03-21T21:13:00.392Z,9.66
2023-03-21T21:15:45.290Z,9.57
2023-03-21T21:18:30.269Z,9.52
2023-03-21T21:21:15.254Z,9.55
2023-03-21T21:24:00.258Z,9.42
2023-03-21T21:26:45.124Z,9.51
2023-03-21T21:29:30.283Z,9.52
2023-03-21T21:32:15.198Z,9.39
2023-03-21T21:35:00.200Z,9.34
2023-03-21T21:37:45.001Z,9.28
2023-03-21T21:40:29.903Z,9.17
2023-03-21T21:43:14.760Z,9.20
2023-03-21T21:45:59.573Z,9.06
2023-03-21T21:48:44.423Z,9.19
2023-03-21T21:51:29.385Z,9.20
2023-03-21T21:54:14.402Z,9.24
2023-03-21T21:56:59.344Z,9.20
2023-03-21T21:59:44.125Z,9.03
2023-03-21T22:02:28.915Z,8.97
2023-03-21T22:05:13.881Z,8.92
2023-03-21T22:07:58.804Z,8.90
2023-03-21T22:10:43.686Z,8.89
2023-03-21T22:13:28.638Z,8.95
2023-03-21T22:16:13.632Z,9.09
2023-03-21T22:18:58.516Z,8.98
2023-03-21T22:21:43.396Z,9.00
2023-03-21T22:24:28.348Z,8.96
2023-03-21T22:27:13.272Z,8.95
2023-03-21T22:29:58.100Z,8.97
2023-03-21T22:32:43.006Z,8.96
2023-03-21T22:35:27.821Z,8.87
2023-03-21T22:38:12.656Z,8.89
2023-03-21T22:40:57.520Z,8.90
2023-03-21T22:43:42.335Z,8.85
2023-03-21T22:46:27.267Z,8.89
2023-03-21T22:49:12.055Z,8.79
2023-03-21T22:51:56.952Z,8.78
2023-03-21T22:54:42.002Z,8.80
2023-03-21T22:57:26.819Z,8.80
2023-03-21T23:00:11.753Z,8.78
2023-03-21T23:02:56.698Z,8.73
2023-03-21T23:05:41.471Z,8.74
2023-03-21T23:08:26.470Z,8.76
2023-03-21T23:11:11.331Z,8.76
2023-03-21T23:14:07.119Z,8.74
2023-03-21T23:16:52.754Z,8.62
2023-03-21T23:19:39.301Z,8.69
2023-03-21T23:22:25.420Z,8.68
2023-03-21T23:25:10.333Z,8.62
2023-03-21T23:27:55.134Z,8.65
2023-03-21T23:30:40.286Z,8.57
2023-03-21T23:33:25.415Z,8.67
2023-03-21T23:36:10.336Z,8.62
2023-03-21T23:38:55.335Z,8.59
2023-03-21T23:41:40.174Z,8.53
2023-03-21T23:44:25.133Z,8.51
2023-03-21T23:47:09.970Z,8.51
2023-03-21T23:49:54.801Z,8.47
2023-03-21T23:52:39.502Z,8.44
2023-03-21T23:55:24.335Z,8.42
2023-03-21T23:58:09.213Z,8.34
